WAT9209 LPPI-LPCR

Flight info

Callsign WAT9209
Flight time 0h 31m
Altitude 28000
Route VFL H132 FRS DCT SC
Aircraft A319/M-SDE3FGHIRWY/LB1

Departure

Time 2026-04-23 16:44
Airport Pico Airport (LPPI)

Arrival

Time 2026-04-23 17:16
Airport Corvo Airport (LPCR)
Time Latitude Longitude Altitude Speed Heading
2026-04-23 16:12 38.55263 -28.44269 121 ft 0 kts 296°
2026-04-23 16:14 38.55263 -28.44268 121 ft 0 kts 296°
2026-04-23 16:21 38.55262 -28.44268 121 ft 0 kts 296°
2026-04-23 16:22 38.55262 -28.44267 121 ft 0 kts 296°
2026-04-23 16:30 38.55262 -28.44266 123 ft 0 kts 296°
2026-04-23 16:33 38.55262 -28.44267 123 ft 1 kts 296°
2026-04-23 16:37 38.55262 -28.44266 129 ft 0 kts 296°
2026-04-23 16:39 38.55264 -28.44272 127 ft 2 kts 298°
2026-04-23 16:39 38.55286 -28.44282 128 ft 7 kts 357°
2026-04-23 16:39 38.55319 -28.44212 130 ft 14 kts 85°
2026-04-23 16:39 38.55323 -28.44164 129 ft 1 kts 82°
2026-04-23 16:40 38.55329 -28.44132 130 ft 6 kts 59°
2026-04-23 16:40 38.55381 -28.44124 131 ft 12 kts 348°
2026-04-23 16:40 38.55441 -28.44066 131 ft 15 kts 80°
2026-04-23 16:40 38.55456 -28.43912 133 ft 20 kts 82°
2026-04-23 16:41 38.55477 -28.43715 134 ft 25 kts 83°
2026-04-23 16:41 38.55503 -28.43465 134 ft 31 kts 81°
2026-04-23 16:41 38.55524 -28.43270 131 ft 18 kts 83°
2026-04-23 16:41 38.55548 -28.43186 132 ft 11 kts 42°
2026-04-23 16:42 38.55549 -28.43145 132 ft 4 kts 150°
2026-04-23 16:42 38.55533 -28.43172 134 ft 4 kts 262°
2026-04-23 16:42 38.55533 -28.43173 134 ft 0 kts 262°
2026-04-23 16:43 38.55533 -28.43175 134 ft 1 kts 263°
2026-04-23 16:44 38.55520 -28.43300 135 ft 48 kts 263°
2026-04-23 16:44 38.55443 -28.44037 134 ft 115 kts 261°
2026-04-23 16:44 38.55333 -28.45095 675 ft 122 kts 264°
2026-04-23 16:44 38.55265 -28.46226 1512 ft 132 kts 269°
2026-04-23 16:45 38.55176 -28.47433 2251 ft 141 kts 268°
2026-04-23 16:45 38.55049 -28.48741 2922 ft 158 kts 267°
2026-04-23 16:45 38.54841 -28.50221 3629 ft 181 kts 261°
2026-04-23 16:45 38.54474 -28.51880 4395 ft 206 kts 257°
2026-04-23 16:46 38.54020 -28.53737 5236 ft 231 kts 257°
2026-04-23 16:46 38.53578 -28.55826 6131 ft 253 kts 257°
2026-04-23 16:46 38.53072 -28.58014 7352 ft 258 kts 256°
2026-04-23 16:46 38.52545 -28.60213 8767 ft 259 kts 258°
2026-04-23 16:47 38.52342 -28.62499 10055 ft 261 kts 276°
2026-04-23 16:47 38.52781 -28.64803 10994 ft 277 kts 292°
2026-04-23 16:47 38.53635 -28.67128 11656 ft 301 kts 295°
2026-04-23 16:47 38.54625 -28.69577 12515 ft 313 kts 296°
2026-04-23 16:48 38.55636 -28.72054 13715 ft 316 kts 296°
2026-04-23 16:48 38.56591 -28.74566 14715 ft 321 kts 295°
2026-04-23 16:48 38.57594 -28.77156 15742 ft 327 kts 300°
2026-04-23 16:48 38.58858 -28.79594 16758 ft 332 kts 302°
2026-04-23 16:49 38.59739 -28.81253 17443 ft 335 kts 303°
2026-04-23 16:49 38.61496 -28.84547 18692 ft 341 kts 303°
2026-04-23 16:49 38.62842 -28.87071 19580 ft 345 kts 302°
2026-04-23 16:49 38.64201 -28.89625 20460 ft 349 kts 302°
2026-04-23 16:50 38.65572 -28.92209 21325 ft 353 kts 302°
2026-04-23 16:50 38.66959 -28.94826 22166 ft 358 kts 302°
2026-04-23 16:50 38.68364 -28.97482 23015 ft 362 kts 302°
2026-04-23 16:50 38.69784 -29.00169 23764 ft 366 kts 302°
2026-04-23 16:51 38.71219 -29.02885 24478 ft 370 kts 302°
2026-04-23 16:51 38.72665 -29.05626 24785 ft 372 kts 302°
2026-04-23 16:51 38.74114 -29.08374 24842 ft 372 kts 302°
2026-04-23 16:51 38.75561 -29.11121 24842 ft 371 kts 302°
2026-04-23 16:52 38.77004 -29.13864 24840 ft 372 kts 302°
2026-04-23 16:52 38.78430 -29.16577 24836 ft 372 kts 302°
2026-04-23 16:52 38.79874 -29.19326 24836 ft 371 kts 302°
2026-04-23 16:52 38.81315 -29.22073 24838 ft 371 kts 302°
2026-04-23 16:53 38.82755 -29.24819 24844 ft 371 kts 302°
2026-04-23 16:53 38.84197 -29.27570 24838 ft 371 kts 302°
2026-04-23 16:53 38.85636 -29.30320 24837 ft 371 kts 302°
2026-04-23 16:53 38.87076 -29.33074 24840 ft 371 kts 302°
2026-04-23 16:54 38.88509 -29.35817 24844 ft 371 kts 302°
2026-04-23 16:54 38.89946 -29.38569 24835 ft 370 kts 302°
2026-04-23 16:54 38.91379 -29.41315 24836 ft 370 kts 302°
2026-04-23 16:54 38.92814 -29.44069 24835 ft 370 kts 302°
2026-04-23 16:55 38.94245 -29.46818 24839 ft 370 kts 302°
2026-04-23 16:55 38.95675 -29.49567 24834 ft 370 kts 301°
2026-04-23 16:55 38.97111 -29.52328 24837 ft 370 kts 301°
2026-04-23 16:55 38.98518 -29.55038 24836 ft 370 kts 301°
2026-04-23 16:56 38.99946 -29.57790 24839 ft 370 kts 301°
2026-04-23 16:56 39.01374 -29.60543 24837 ft 370 kts 301°
2026-04-23 16:56 39.02797 -29.63291 24839 ft 369 kts 301°
2026-04-23 16:56 39.04223 -29.66045 24838 ft 369 kts 301°
2026-04-23 16:57 39.05645 -29.68796 24837 ft 369 kts 301°
2026-04-23 16:57 39.07069 -29.71551 24834 ft 369 kts 301°
2026-04-23 16:57 39.08490 -29.74304 24837 ft 369 kts 301°
2026-04-23 16:57 39.09908 -29.77053 24770 ft 368 kts 301°
2026-04-23 16:58 39.11320 -29.79793 24544 ft 366 kts 301°
2026-04-23 16:58 39.12712 -29.82495 24310 ft 364 kts 301°
2026-04-23 16:58 39.14109 -29.85210 24070 ft 363 kts 301°
2026-04-23 16:58 39.15500 -29.87917 23832 ft 362 kts 301°
2026-04-23 16:59 39.16889 -29.90622 23615 ft 360 kts 301°
2026-04-23 16:59 39.18271 -29.93313 23376 ft 359 kts 301°
2026-04-23 16:59 39.19647 -29.95997 23104 ft 358 kts 301°
2026-04-23 16:59 39.21018 -29.98672 22575 ft 358 kts 301°
2026-04-23 17:00 39.22386 -30.01344 21939 ft 356 kts 301°
2026-04-23 17:00 39.23739 -30.03988 21317 ft 350 kts 301°
2026-04-23 17:00 39.25071 -30.06592 20614 ft 346 kts 301°
2026-04-23 17:00 39.26403 -30.09203 19775 ft 348 kts 301°
2026-04-23 17:01 39.27279 -30.10918 19411 ft 343 kts 301°
2026-04-23 17:01 39.29006 -30.14302 18761 ft 334 kts 301°
2026-04-23 17:01 39.30263 -30.16770 18156 ft 331 kts 301°
2026-04-23 17:01 39.31524 -30.19247 17515 ft 327 kts 301°
2026-04-23 17:02 39.32363 -30.20898 17122 ft 324 kts 301°
2026-04-23 17:02 39.33987 -30.24093 16326 ft 318 kts 301°
2026-04-23 17:02 39.35193 -30.26470 15746 ft 315 kts 301°
2026-04-23 17:02 39.36386 -30.28823 15162 ft 312 kts 301°
2026-04-23 17:03 39.37567 -30.31154 14590 ft 309 kts 301°
2026-04-23 17:03 39.38741 -30.33471 14014 ft 307 kts 301°
2026-04-23 17:03 39.39907 -30.35777 13412 ft 305 kts 301°
2026-04-23 17:03 39.41061 -30.38059 12834 ft 301 kts 301°
2026-04-23 17:04 39.42201 -30.40312 12283 ft 297 kts 301°
2026-04-23 17:04 39.43327 -30.42542 11730 ft 294 kts 301°
2026-04-23 17:04 39.44439 -30.44745 11181 ft 291 kts 302°
2026-04-23 17:04 39.45541 -30.46929 10643 ft 289 kts 302°
2026-04-23 17:05 39.46266 -30.48366 10288 ft 287 kts 302°
2026-04-23 17:05 39.47348 -30.50513 9932 ft 279 kts 302°
2026-04-23 17:05 39.48703 -30.53200 9774 ft 259 kts 302°
2026-04-23 17:05 39.49358 -30.54498 9668 ft 251 kts 302°
2026-04-23 17:06 39.50631 -30.57032 9357 ft 258 kts 302°
2026-04-23 17:06 39.51614 -30.58991 8938 ft 260 kts 302°
2026-04-23 17:06 39.52280 -30.60317 8662 ft 259 kts 302°
2026-04-23 17:06 39.53256 -30.62263 8237 ft 256 kts 302°
2026-04-23 17:07 39.54215 -30.64174 7814 ft 249 kts 302°
2026-04-23 17:07 39.55135 -30.66009 7424 ft 237 kts 303°
2026-04-23 17:07 39.56020 -30.67774 7041 ft 231 kts 303°
2026-04-23 17:07 39.56895 -30.69521 6656 ft 230 kts 303°
2026-04-23 17:08 39.57754 -30.71239 6276 ft 230 kts 303°
2026-04-23 17:08 39.58621 -30.72971 5884 ft 229 kts 303°
2026-04-23 17:08 39.59483 -30.74695 5502 ft 227 kts 303°
2026-04-23 17:08 39.60342 -30.76412 5231 ft 230 kts 303°
2026-04-23 17:09 39.61226 -30.78178 5160 ft 235 kts 303°
2026-04-23 17:09 39.62117 -30.79961 4839 ft 236 kts 303°
2026-04-23 17:09 39.63013 -30.81754 4426 ft 237 kts 303°
2026-04-23 17:09 39.63905 -30.83540 4009 ft 235 kts 303°
2026-04-23 17:10 39.64653 -30.85369 3285 ft 225 kts 292°
2026-04-23 17:10 39.65025 -30.87278 2788 ft 217 kts 281°
2026-04-23 17:10 39.65175 -30.89251 2669 ft 216 kts 280°
2026-04-23 17:10 39.65333 -30.91118 2513 ft 199 kts 280°
2026-04-23 17:11 39.65486 -30.92809 2238 ft 176 kts 281°
2026-04-23 17:11 39.65616 -30.94283 2068 ft 153 kts 281°
2026-04-23 17:11 39.65725 -30.95549 1974 ft 126 kts 282°
2026-04-23 17:11 39.65813 -30.96576 1986 ft 110 kts 282°
2026-04-23 17:12 39.65903 -30.97528 1970 ft 99 kts 282°
2026-04-23 17:12 39.65989 -30.98397 1749 ft 98 kts 283°
2026-04-23 17:12 39.66066 -30.99286 1650 ft 100 kts 283°
2026-04-23 17:12 39.66162 -31.00182 1504 ft 100 kts 282°
2026-04-23 17:13 39.66238 -31.01075 1350 ft 100 kts 282°
2026-04-23 17:13 39.66313 -31.01975 1208 ft 101 kts 284°
2026-04-23 17:13 39.66399 -31.02874 1040 ft 100 kts 284°
2026-04-23 17:13 39.66489 -31.03791 868 ft 102 kts 282°
2026-04-23 17:14 39.66569 -31.04692 732 ft 99 kts 283°
2026-04-23 17:14 39.66651 -31.05578 691 ft 98 kts 279°
2026-04-23 17:14 39.66733 -31.06469 673 ft 101 kts 280°
2026-04-23 17:14 39.66823 -31.07370 645 ft 101 kts 281°
2026-04-23 17:15 39.66882 -31.08273 593 ft 98 kts 279°
2026-04-23 17:15 39.66942 -31.09160 467 ft 101 kts 279°
2026-04-23 17:15 39.67011 -31.10099 291 ft 107 kts 280°
2026-04-23 17:15 39.67096 -31.11046 108 ft 103 kts 279°
2026-04-23 17:16 39.67157 -31.11768 46 ft 32 kts 274°
2026-04-23 17:16 39.67175 -31.11977 44 ft 19 kts 276°
2026-04-23 17:16 39.67178 -31.12098 42 ft 12 kts 253°
2026-04-23 17:16 39.67184 -31.12126 41 ft 3 kts 11°
2026-04-23 17:17 39.67186 -31.12043 43 ft 17 kts 97°
2026-04-23 17:17 39.67168 -31.11854 45 ft 24 kts 96°
2026-04-23 17:17 39.67147 -31.11619 50 ft 28 kts 96°
2026-04-23 17:17 39.67129 -31.11407 53 ft 13 kts 96°
2026-04-23 17:18 39.67086 -31.11340 48 ft 0 kts 132°
2026-04-23 17:18 39.67086 -31.11336 51 ft 2 kts 108°
2026-04-23 17:18 39.67086 -31.11334 51 ft 0 kts 87°
2026-04-23 17:21 39.67078 -31.11315 52 ft 0 kts 158°